sensor_id;sensor_type;location;lat;lon;timestamp;pressure;altitude;pressure_sealevel;temperature;humidity
22647;BME280;11490;42.726;23.268;2022-11-21T00:00:02;93938.84;;;11.59;100.00
22647;BME280;11490;42.726;23.268;2022-11-21T00:02:28;93916.97;;;11.57;100.00
22647;BME280;11490;42.726;23.268;2022-11-21T00:04:53;93918.03;;;11.61;100.00
22647;BME280;11490;42.726;23.268;2022-11-21T00:07:18;93946.69;;;11.35;100.00
22647;BME280;11490;42.726;23.268;2022-11-21T00:09:44;93916.41;;;11.60;100.00
22647;BME280;11490;42.726;23.268;2022-11-21T00:12:09;93924.94;;;11.62;100.00
22647;BME280;11490;42.726;23.268;2022-11-21T00:14:35;93922.59;;;11.50;100.00
22647;BME280;11490;42.726;23.268;2022-11-21T00:17:00;93916.38;;;11.65;100.00
22647;BME280;11490;42.726;23.268;2022-11-21T00:19:25;93913.72;;;11.65;100.00
22647;BME280;11490;42.726;23.268;2022-11-21T00:21:51;93912.06;;;11.69;100.00
22647;BME280;11490;42.726;23.268;2022-11-21T00:24:16;93923.91;;;11.58;100.00
22647;BME280;11490;42.726;23.268;2022-11-21T00:26:41;93922.19;;;11.82;100.00
22647;BME280;11490;42.726;23.268;2022-11-21T00:29:07;93898.66;;;11.35;100.00
22647;BME280;11490;42.726;23.268;2022-11-21T00:31:32;93928.97;;;11.54;100.00
22647;BME280;11490;42.726;23.268;2022-11-21T00:33:57;93924.44;;;11.55;100.00
22647;BME280;11490;42.726;23.268;2022-11-21T00:36:23;93915.78;;;11.78;100.00
22647;BME280;11490;42.726;23.268;2022-11-21T00:38:48;93893.50;;;11.49;100.00
22647;BME280;11490;42.726;23.268;2022-11-21T00:41:13;93876.53;;;11.25;100.00
22647;BME280;11490;42.726;23.268;2022-11-21T00:43:39;93854.22;;;11.05;100.00
22647;BME280;11490;42.726;23.268;2022-11-21T00:46:04;93862.84;;;10.82;100.00
22647;BME280;11490;42.726;23.268;2022-11-21T00:48:30;93883.88;;;10.94;100.00
22647;BME280;11490;42.726;23.268;2022-11-21T00:50:56;93867.56;;;11.05;100.00
22647;BME280;11490;42.726;23.268;2022-11-21T00:53:21;93848.81;;;11.21;100.00
22647;BME280;11490;42.726;23.268;2022-11-21T00:55:47;93871.19;;;11.25;100.00
22647;BME280;11490;42.726;23.268;2022-11-21T00:58:12;93893.13;;;11.16;100.00
22647;BME280;11490;42.726;23.268;2022-11-21T01:00:37;93866.34;;;11.32;100.00
22647;BME280;11490;42.726;23.268;2022-11-21T01:03:03;93886.53;;;10.94;100.00
22647;BME280;11490;42.726;23.268;2022-11-21T01:05:31;93870.22;;;11.05;100.00
22647;BME280;11490;42.726;23.268;2022-11-21T01:07:57;93856.28;;;11.18;100.00
22647;BME280;11490;42.726;23.268;2022-11-21T01:10:22;93865.31;;;11.28;100.00
22647;BME280;11490;42.726;23.268;2022-11-21T01:12:47;93837.78;;;11.37;100.00
22647;BME280;11490;42.726;23.268;2022-11-21T01:15:13;93847.94;;;11.35;100.00
22647;BME280;11490;42.726;23.268;2022-11-21T01:17:39;93846.75;;;11.02;100.00
22647;BME280;11490;42.726;23.268;2022-11-21T01:20:05;93855.94;;;10.71;100.00
22647;BME280;11490;42.726;23.268;2022-11-21T01:22:31;93875.66;;;10.75;100.00
22647;BME280;11490;42.726;23.268;2022-11-21T01:24:57;93851.06;;;10.93;100.00
22647;BME280;11490;42.726;23.268;2022-11-21T01:27:22;93848.56;;;11.17;100.00
22647;BME280;11490;42.726;23.268;2022-11-21T01:29:47;93880.97;;;10.80;100.00
22647;BME280;11490;42.726;23.268;2022-11-21T01:32:13;93873.47;;;10.97;100.00
22647;BME280;11490;42.726;23.268;2022-11-21T01:34:38;93847.22;;;11.19;100.00
22647;BME280;11490;42.726;23.268;2022-11-21T01:37:04;93869.75;;;10.88;100.00
22647;BME280;11490;42.726;23.268;2022-11-21T01:39:29;93862.56;;;10.89;100.00
22647;BME280;11490;42.726;23.268;2022-11-21T01:41:54;93850.75;;;11.05;100.00
22647;BME280;11490;42.726;23.268;2022-11-21T01:44:25;93841.56;;;11.26;100.00
22647;BME280;11490;42.726;23.268;2022-11-21T01:46:51;93838.75;;;11.02;100.00
22647;BME280;11490;42.726;23.268;2022-11-21T01:49:24;93826.38;;;11.27;100.00
22647;BME280;11490;42.726;23.268;2022-11-21T01:54:52;93834.50;;;11.50;100.00
22647;BME280;11490;42.726;23.268;2022-11-21T01:57:28;93818.47;;;11.50;100.00
22647;BME280;11490;42.726;23.268;2022-11-21T01:59:58;93833.97;;;10.99;100.00
22647;BME280;11490;42.726;23.268;2022-11-21T02:02:30;93800.44;;;10.83;100.00
22647;BME280;11490;42.726;23.268;2022-11-21T02:04:58;93811.03;;;10.93;100.00
22647;BME280;11490;42.726;23.268;2022-11-21T02:07:25;93845.44;;;10.95;100.00
22647;BME280;11490;42.726;23.268;2022-11-21T02:09:55;93828.19;;;10.77;100.00
22647;BME280;11490;42.726;23.268;2022-11-21T02:12:28;93837.22;;;10.86;100.00
22647;BME280;11490;42.726;23.268;2022-11-21T02:14:55;93847.81;;;11.06;100.00
22647;BME280;11490;42.726;23.268;2022-11-21T02:17:21;93837.03;;;11.27;100.00
22647;BME280;11490;42.726;23.268;2022-11-21T02:19:56;93840.78;;;11.26;100.00
22647;BME280;11490;42.726;23.268;2022-11-21T02:25:03;93847.25;;;11.09;100.00
22647;BME280;11490;42.726;23.268;2022-11-21T02:27:28;93827.41;;;11.31;100.00
22647;BME280;11490;42.726;23.268;2022-11-21T02:29:54;93824.66;;;11.41;100.00
22647;BME280;11490;42.726;23.268;2022-11-21T02:32:30;93833.91;;;11.58;100.00
22647;BME280;11490;42.726;23.268;2022-11-21T02:34:56;93814.69;;;11.56;100.00
22647;BME280;11490;42.726;23.268;2022-11-21T02:37:21;93827.50;;;11.60;100.00
22647;BME280;11490;42.726;23.268;2022-11-21T02:39:47;93828.63;;;11.53;100.00
22647;BME280;11490;42.726;23.268;2022-11-21T02:42:25;93831.34;;;10.89;100.00
22647;BME280;11490;42.726;23.268;2022-11-21T02:44:59;93835.09;;;10.78;100.00
22647;BME280;11490;42.726;23.268;2022-11-21T02:47:27;93815.81;;;11.06;100.00
22647;BME280;11490;42.726;23.268;2022-11-21T02:49:59;93818.22;;;11.03;100.00
22647;BME280;11490;42.726;23.268;2022-11-21T02:52:26;93818.97;;;11.13;100.00
22647;BME280;11490;42.726;23.268;2022-11-21T02:54:51;93798.59;;;11.28;100.00
22647;BME280;11490;42.726;23.268;2022-11-21T02:57:17;93778.88;;;11.24;100.00
22647;BME280;11490;42.726;23.268;2022-11-21T02:59:42;93782.00;;;11.36;100.00
22647;BME280;11490;42.726;23.268;2022-11-21T03:02:07;93801.50;;;11.31;100.00
22647;BME280;11490;42.726;23.268;2022-11-21T03:04:33;93801.06;;;11.19;100.00
22647;BME280;11490;42.726;23.268;2022-11-21T03:06:58;93775.59;;;11.37;100.00
22647;BME280;11490;42.726;23.268;2022-11-21T03:09:23;93780.41;;;11.35;100.00
22647;BME280;11490;42.726;23.268;2022-11-21T03:11:49;93788.47;;;11.25;100.00
22647;BME280;11490;42.726;23.268;2022-11-21T03:14:14;93779.13;;;11.27;100.00
22647;BME280;11490;42.726;23.268;2022-11-21T03:16:39;93774.91;;;11.55;100.00
22647;BME280;11490;42.726;23.268;2022-11-21T03:19:05;93780.50;;;11.58;100.00
22647;BME280;11490;42.726;23.268;2022-11-21T03:21:30;93769.72;;;11.35;100.00
22647;BME280;11490;42.726;23.268;2022-11-21T03:23:55;93773.56;;;11.57;100.00
22647;BME280;11490;42.726;23.268;2022-11-21T03:26:21;93784.19;;;11.68;100.00
22647;BME280;11490;42.726;23.268;2022-11-21T03:28:46;93788.16;;;11.70;100.00
22647;BME280;11490;42.726;23.268;2022-11-21T03:31:12;93784.91;;;11.78;100.00
22647;BME280;11490;42.726;23.268;2022-11-21T03:33:37;93781.50;;;11.68;100.00
22647;BME280;11490;42.726;23.268;2022-11-21T03:36:02;93747.06;;;11.66;100.00
22647;BME280;11490;42.726;23.268;2022-11-21T03:38:29;93772.34;;;11.84;100.00
22647;BME280;11490;42.726;23.268;2022-11-21T03:40:55;93789.63;;;11.91;100.00
22647;BME280;11490;42.726;23.268;2022-11-21T03:43:20;93798.75;;;11.85;100.00
22647;BME280;11490;42.726;23.268;2022-11-21T03:45:46;93795.47;;;11.93;100.00
22647;BME280;11490;42.726;23.268;2022-11-21T03:48:13;93777.09;;;11.53;100.00
22647;BME280;11490;42.726;23.268;2022-11-21T03:50:41;93778.88;;;11.63;100.00
22647;BME280;11490;42.726;23.268;2022-11-21T03:53:07;93768.38;;;11.71;100.00
22647;BME280;11490;42.726;23.268;2022-11-21T03:55:32;93760.94;;;11.68;100.00
22647;BME280;11490;42.726;23.268;2022-11-21T03:57:57;93771.22;;;11.51;100.00
22647;BME280;11490;42.726;23.268;2022-11-21T04:00:23;93759.00;;;11.45;100.00
22647;BME280;11490;42.726;23.268;2022-11-21T04:02:48;93764.81;;;11.52;100.00
22647;BME280;11490;42.726;23.268;2022-11-21T04:05:13;93756.75;;;11.57;100.00
22647;BME280;11490;42.726;23.268;2022-11-21T04:07:39;93749.53;;;11.57;100.00
22647;BME280;11490;42.726;23.268;2022-11-21T04:10:04;93755.88;;;11.67;100.00
22647;BME280;11490;42.726;23.268;2022-11-21T04:12:30;93752.97;;;11.63;100.00
22647;BME280;11490;42.726;23.268;2022-11-21T04:14:55;93758.78;;;11.75;100.00
22647;BME280;11490;42.726;23.268;2022-11-21T04:17:20;93760.97;;;11.63;100.00
22647;BME280;11490;42.726;23.268;2022-11-21T04:19:46;93758.81;;;11.65;100.00
22647;BME280;11490;42.726;23.268;2022-11-21T04:22:11;93766.28;;;11.68;100.00
22647;BME280;11490;42.726;23.268;2022-11-21T04:24:36;93770.56;;;11.64;100.00
22647;BME280;11490;42.726;23.268;2022-11-21T04:27:02;93760.91;;;11.73;100.00
22647;BME280;11490;42.726;23.268;2022-11-21T04:29:27;93781.41;;;11.83;100.00
22647;BME280;11490;42.726;23.268;2022-11-21T04:31:52;93771.34;;;12.04;100.00
22647;BME280;11490;42.726;23.268;2022-11-21T04:34:18;93774.41;;;12.16;100.00
22647;BME280;11490;42.726;23.268;2022-11-21T04:36:43;93759.19;;;12.16;100.00
22647;BME280;11490;42.726;23.268;2022-11-21T04:39:08;93780.19;;;12.28;100.00
22647;BME280;11490;42.726;23.268;2022-11-21T04:41:34;93781.72;;;12.34;100.00
22647;BME280;11490;42.726;23.268;2022-11-21T04:43:59;93789.09;;;12.18;100.00
22647;BME280;11490;42.726;23.268;2022-11-21T04:46:25;93818.13;;;12.01;100.00
22647;BME280;11490;42.726;23.268;2022-11-21T04:48:50;93817.28;;;12.06;100.00
22647;BME280;11490;42.726;23.268;2022-11-21T04:51:15;93796.53;;;11.92;100.00
22647;BME280;11490;42.726;23.268;2022-11-21T04:53:41;93793.09;;;11.53;100.00
22647;BME280;11490;42.726;23.268;2022-11-21T04:56:06;93807.00;;;11.50;100.00
22647;BME280;11490;42.726;23.268;2022-11-21T04:58:31;93815.81;;;11.50;100.00
22647;BME280;11490;42.726;23.268;2022-11-21T05:00:57;93810.66;;;11.20;100.00
22647;BME280;11490;42.726;23.268;2022-11-21T05:03:22;93818.97;;;11.13;100.00
22647;BME280;11490;42.726;23.268;2022-11-21T05:05:48;93825.69;;;11.06;100.00
22647;BME280;11490;42.726;23.268;2022-11-21T05:08:13;93817.97;;;10.94;100.00
22647;BME280;11490;42.726;23.268;2022-11-21T05:10:39;93849.50;;;10.77;100.00
22647;BME280;11490;42.726;23.268;2022-11-21T05:13:23;93838.34;;;10.70;100.00
22647;BME280;11490;42.726;23.268;2022-11-21T05:15:55;93839.19;;;10.60;100.00
22647;BME280;11490;42.726;23.268;2022-11-21T05:18:21;93844.81;;;10.49;100.00
22647;BME280;11490;42.726;23.268;2022-11-21T05:20:46;93874.13;;;10.08;100.00
22647;BME280;11490;42.726;23.268;2022-11-21T05:23:11;93878.13;;;10.11;100.00
22647;BME280;11490;42.726;23.268;2022-11-21T05:25:37;93865.06;;;9.99;100.00
22647;BME280;11490;42.726;23.268;2022-11-21T05:28:02;93868.28;;;9.81;100.00
22647;BME280;11490;42.726;23.268;2022-11-21T05:30:27;93895.13;;;9.64;100.00
22647;BME280;11490;42.726;23.268;2022-11-21T05:32:53;93894.88;;;9.71;100.00
22647;BME280;11490;42.726;23.268;2022-11-21T05:35:18;93903.41;;;9.73;100.00
22647;BME280;11490;42.726;23.268;2022-11-21T05:37:44;93904.72;;;9.65;100.00
22647;BME280;11490;42.726;23.268;2022-11-21T05:40:10;93911.88;;;9.44;100.00
22647;BME280;11490;42.726;23.268;2022-11-21T05:42:40;93911.91;;;9.64;100.00
22647;BME280;11490;42.726;23.268;2022-11-21T05:45:24;93931.03;;;9.56;100.00
22647;BME280;11490;42.726;23.268;2022-11-21T05:47:50;93912.44;;;8.89;100.00
22647;BME280;11490;42.726;23.268;2022-11-21T05:50:15;93921.81;;;9.07;100.00
22647;BME280;11490;42.726;23.268;2022-11-21T05:52:41;93924.56;;;9.27;100.00
22647;BME280;11490;42.726;23.268;2022-11-21T05:55:06;93940.53;;;9.32;100.00
22647;BME280;11490;42.726;23.268;2022-11-21T05:57:32;93916.06;;;9.30;100.00
22647;BME280;11490;42.726;23.268;2022-11-21T05:59:57;93966.84;;;9.23;100.00
22647;BME280;11490;42.726;23.268;2022-11-21T06:02:22;93944.75;;;9.18;100.00
22647;BME280;11490;42.726;23.268;2022-11-21T06:05:07;93951.00;;;8.92;100.00
22647;BME280;11490;42.726;23.268;2022-11-21T06:07:32;93944.59;;;8.87;100.00
22647;BME280;11490;42.726;23.268;2022-11-21T06:09:58;93958.94;;;8.86;100.00
22647;BME280;11490;42.726;23.268;2022-11-21T06:12:23;93972.34;;;9.02;100.00
22647;BME280;11490;42.726;23.268;2022-11-21T06:14:48;93974.97;;;8.97;100.00
22647;BME280;11490;42.726;23.268;2022-11-21T06:17:14;93942.38;;;8.69;100.00
22647;BME280;11490;42.726;23.268;2022-11-21T06:19:39;93981.75;;;8.77;100.00
22647;BME280;11490;42.726;23.268;2022-11-21T06:22:04;93960.94;;;8.64;100.00
22647;BME280;11490;42.726;23.268;2022-11-21T06:24:30;93985.47;;;8.76;100.00
22647;BME280;11490;42.726;23.268;2022-11-21T06:26:58;93998.97;;;8.65;100.00
22647;BME280;11490;42.726;23.268;2022-11-21T06:29:23;93989.94;;;8.34;100.00
22647;BME280;11490;42.726;23.268;2022-11-21T06:31:49;93990.28;;;8.42;100.00
22647;BME280;11490;42.726;23.268;2022-11-21T06:34:15;94004.97;;;8.50;100.00
22647;BME280;11490;42.726;23.268;2022-11-21T06:36:40;94012.06;;;8.44;100.00
22647;BME280;11490;42.726;23.268;2022-11-21T06:39:06;94017.28;;;8.07;100.00
22647;BME280;11490;42.726;23.268;2022-11-21T06:41:31;94013.84;;;8.34;100.00
22647;BME280;11490;42.726;23.268;2022-11-21T06:44:00;94031.41;;;8.35;100.00
22647;BME280;11490;42.726;23.268;2022-11-21T06:46:26;94022.31;;;8.31;100.00
22647;BME280;11490;42.726;23.268;2022-11-21T06:48:52;94052.41;;;8.15;100.00
22647;BME280;11490;42.726;23.268;2022-11-21T06:51:22;94056.31;;;8.07;100.00
22647;BME280;11490;42.726;23.268;2022-11-21T06:53:53;94055.72;;;8.27;100.00
22647;BME280;11490;42.726;23.268;2022-11-21T06:56:23;94103.38;;;8.11;100.00
22647;BME280;11490;42.726;23.268;2022-11-21T06:58:50;94103.69;;;7.93;100.00
22647;BME280;11490;42.726;23.268;2022-11-21T07:01:15;94073.81;;;8.03;100.00
22647;BME280;11490;42.726;23.268;2022-11-21T07:03:41;94098.00;;;8.06;100.00
22647;BME280;11490;42.726;23.268;2022-11-21T07:06:06;94109.22;;;8.13;100.00
22647;BME280;11490;42.726;23.268;2022-11-21T07:08:33;94111.22;;;8.01;100.00
22647;BME280;11490;42.726;23.268;2022-11-21T07:11:04;94112.97;;;8.13;100.00
22647;BME280;11490;42.726;23.268;2022-11-21T07:13:30;94124.06;;;8.09;100.00
22647;BME280;11490;42.726;23.268;2022-11-21T07:16:02;94146.31;;;8.03;100.00
22647;BME280;11490;42.726;23.268;2022-11-21T07:18:28;94139.25;;;7.92;100.00
22647;BME280;11490;42.726;23.268;2022-11-21T07:20:57;94144.94;;;7.79;100.00
22647;BME280;11490;42.726;23.268;2022-11-21T07:23:23;94153.81;;;7.68;100.00
22647;BME280;11490;42.726;23.268;2022-11-21T07:25:48;94161.56;;;7.53;100.00
22647;BME280;11490;42.726;23.268;2022-11-21T07:28:14;94161.53;;;7.69;100.00
22647;BME280;11490;42.726;23.268;2022-11-21T07:30:39;94161.50;;;7.86;100.00
22647;BME280;11490;42.726;23.268;2022-11-21T07:33:05;94153.03;;;7.89;100.00
22647;BME280;11490;42.726;23.268;2022-11-21T07:35:32;94172.31;;;7.63;100.00
22647;BME280;11490;42.726;23.268;2022-11-21T07:37:58;94177.00;;;7.56;100.00
22647;BME280;11490;42.726;23.268;2022-11-21T07:40:23;94191.38;;;7.60;100.00
22647;BME280;11490;42.726;23.268;2022-11-21T07:42:49;94184.16;;;7.39;100.00
22647;BME280;11490;42.726;23.268;2022-11-21T07:45:14;94189.53;;;7.44;100.00
22647;BME280;11490;42.726;23.268;2022-11-21T07:47:41;94195.50;;;7.51;100.00
22647;BME280;11490;42.726;23.268;2022-11-21T07:50:07;94190.84;;;7.24;100.00
22647;BME280;11490;42.726;23.268;2022-11-21T07:52:33;94202.25;;;7.42;100.00
22647;BME280;11490;42.726;23.268;2022-11-21T07:54:59;94197.81;;;7.64;100.00
22647;BME280;11490;42.726;23.268;2022-11-21T07:57:27;94202.41;;;7.52;100.00
22647;BME280;11490;42.726;23.268;2022-11-21T07:59:52;94214.84;;;7.51;100.00
22647;BME280;11490;42.726;23.268;2022-11-21T08:02:23;94216.44;;;7.69;100.00
22647;BME280;11490;42.726;23.268;2022-11-21T08:04:48;94211.91;;;7.48;100.00
22647;BME280;11490;42.726;23.268;2022-11-21T08:07:18;94223.84;;;7.67;100.00
22647;BME280;11490;42.726;23.268;2022-11-21T08:09:44;94204.31;;;7.73;100.00
22647;BME280;11490;42.726;23.268;2022-11-21T08:12:10;94227.91;;;7.91;100.00
22647;BME280;11490;42.726;23.268;2022-11-21T08:14:36;94218.22;;;7.80;100.00
22647;BME280;11490;42.726;23.268;2022-11-21T08:17:03;94237.22;;;8.10;100.00
22647;BME280;11490;42.726;23.268;2022-11-21T08:19:29;94233.50;;;8.11;100.00
22647;BME280;11490;42.726;23.268;2022-11-21T08:21:54;94241.53;;;8.17;100.00
22647;BME280;11490;42.726;23.268;2022-11-21T08:24:20;94258.97;;;7.91;100.00
22647;BME280;11490;42.726;23.268;2022-11-21T08:26:45;94249.50;;;7.78;100.00
22647;BME280;11490;42.726;23.268;2022-11-21T08:29:12;94263.03;;;7.98;100.00
22647;BME280;11490;42.726;23.268;2022-11-21T08:31:40;94270.06;;;8.04;100.00
22647;BME280;11490;42.726;23.268;2022-11-21T08:34:05;94268.72;;;8.24;100.00
22647;BME280;11490;42.726;23.268;2022-11-21T08:36:31;94279.19;;;8.13;100.00
22647;BME280;11490;42.726;23.268;2022-11-21T08:38:57;94272.41;;;8.23;100.00
22647;BME280;11490;42.726;23.268;2022-11-21T08:41:22;94273.06;;;8.13;100.00
22647;BME280;11490;42.726;23.268;2022-11-21T08:44:06;94282.72;;;8.36;100.00
22647;BME280;11490;42.726;23.268;2022-11-21T08:46:33;94292.84;;;8.22;100.00
22647;BME280;11490;42.726;23.268;2022-11-21T08:49:07;94288.53;;;8.33;100.00
22647;BME280;11490;42.726;23.268;2022-11-21T08:51:34;94285.44;;;8.41;100.00
22647;BME280;11490;42.726;23.268;2022-11-21T08:53:59;94286.28;;;8.08;100.00
22647;BME280;11490;42.726;23.268;2022-11-21T08:56:25;94288.84;;;8.20;100.00
22647;BME280;11490;42.726;23.268;2022-11-21T08:58:51;94284.50;;;8.13;100.00
22647;BME280;11490;42.726;23.268;2022-11-21T09:01:17;94289.47;;;8.27;100.00
22647;BME280;11490;42.726;23.268;2022-11-21T09:03:42;94286.25;;;8.25;100.00
22647;BME280;11490;42.726;23.268;2022-11-21T09:06:07;94293.34;;;8.36;100.00
22647;BME280;11490;42.726;23.268;2022-11-21T09:08:33;94289.88;;;7.97;100.00
22647;BME280;11490;42.726;23.268;2022-11-21T09:11:03;94291.31;;;8.04;100.00
22647;BME280;11490;42.726;23.268;2022-11-21T09:13:29;94266.00;;;8.19;100.00
22647;BME280;11490;42.726;23.268;2022-11-21T09:15:57;94291.38;;;8.48;100.00
22647;BME280;11490;42.726;23.268;2022-11-21T09:18:40;94283.44;;;8.53;100.00
22647;BME280;11490;42.726;23.268;2022-11-21T09:21:06;94283.41;;;8.48;100.00
22647;BME280;11490;42.726;23.268;2022-11-21T09:23:31;94282.41;;;8.16;100.00
22647;BME280;11490;42.726;23.268;2022-11-21T09:25:59;94280.38;;;8.23;100.00
22647;BME280;11490;42.726;23.268;2022-11-21T09:28:24;94307.22;;;8.04;100.00
22647;BME280;11490;42.726;23.268;2022-11-21T09:30:49;94314.09;;;8.22;100.00
22647;BME280;11490;42.726;23.268;2022-11-21T09:33:15;94313.41;;;8.10;100.00
22647;BME280;11490;42.726;23.268;2022-11-21T09:35:43;94315.31;;;8.15;100.00
22647;BME280;11490;42.726;23.268;2022-11-21T09:38:09;94317.06;;;7.87;100.00
22647;BME280;11490;42.726;23.268;2022-11-21T09:40:35;94313.28;;;8.22;100.00
22647;BME280;11490;42.726;23.268;2022-11-21T09:46:14;94317.06;;;7.87;100.00
22647;BME280;11490;42.726;23.268;2022-11-21T09:49:05;94281.19;;;7.51;100.00
22647;BME280;11490;42.726;23.268;2022-11-21T09:51:40;94290.69;;;7.64;100.00
22647;BME280;11490;42.726;23.268;2022-11-21T09:54:17;94262.06;;;7.66;100.00
22647;BME280;11490;42.726;23.268;2022-11-21T09:56:46;94324.03;;;8.10;100.00
22647;BME280;11490;42.726;23.268;2022-11-21T09:59:36;94334.13;;;7.58;100.00
22647;BME280;11490;42.726;23.268;2022-11-21T10:02:22;94307.19;;;7.66;100.00
22647;BME280;11490;42.726;23.268;2022-11-21T10:04:49;94325.25;;;8.02;100.00
22647;BME280;11490;42.726;23.268;2022-11-21T10:07:31;94332.41;;;8.19;100.00
22647;BME280;11490;42.726;23.268;2022-11-21T10:13:56;94336.78;;;8.30;100.00
22647;BME280;11490;42.726;23.268;2022-11-21T10:16:04;94332.34;;;7.97;100.00
22647;BME280;11490;42.726;23.268;2022-11-21T10:27:18;94350.84;;;7.92;100.00
22647;BME280;11490;42.726;23.268;2022-11-21T10:30:13;94339.25;;;7.98;100.00
22647;BME280;11490;42.726;23.268;2022-11-21T10:32:40;94339.72;;;8.11;100.00
22647;BME280;11490;42.726;23.268;2022-11-21T10:38:32;94320.50;;;8.04;100.00
22647;BME280;11490;42.726;23.268;2022-11-21T10:41:14;94331.59;;;8.18;100.00
22647;BME280;11490;42.726;23.268;2022-11-21T10:53:21;94323.06;;;7.99;99.64
22647;BME280;11490;42.726;23.268;2022-11-21T10:56:36;94314.31;;;7.82;98.75
22647;BME280;11490;42.726;23.268;2022-11-21T10:59:28;94314.88;;;7.84;99.84
22647;BME280;11490;42.726;23.268;2022-11-21T11:04:48;94289.53;;;7.77;100.00
22647;BME280;11490;42.726;23.268;2022-11-21T11:07:23;94350.81;;;8.25;100.00
22647;BME280;11490;42.726;23.268;2022-11-21T11:09:50;94354.34;;;8.47;100.00
22647;BME280;11490;42.726;23.268;2022-11-21T11:12:30;94341.50;;;8.61;99.32
22647;BME280;11490;42.726;23.268;2022-11-21T11:15:24;94343.66;;;8.64;97.95
22647;BME280;11490;42.726;23.268;2022-11-21T11:17:53;94350.22;;;8.78;98.06
22647;BME280;11490;42.726;23.268;2022-11-21T11:20:40;94351.41;;;8.66;97.32
22647;BME280;11490;42.726;23.268;2022-11-21T11:25:49;94362.38;;;8.53;97.00
22647;BME280;11490;42.726;23.268;2022-11-21T11:28:15;94321.34;;;8.27;96.40
22647;BME280;11490;42.726;23.268;2022-11-21T11:30:43;94358.38;;;8.50;96.89
22647;BME280;11490;42.726;23.268;2022-11-21T11:38:29;94342.25;;;8.78;97.60
22647;BME280;11490;42.726;23.268;2022-11-21T11:40:59;94350.97;;;8.96;95.23
22647;BME280;11490;42.726;23.268;2022-11-21T11:43:36;94353.72;;;8.84;94.27
22647;BME280;11490;42.726;23.268;2022-11-21T11:46:43;94353.75;;;9.06;93.08
22647;BME280;11490;42.726;23.268;2022-11-21T11:49:41;94364.38;;;9.06;92.64
22647;BME280;11490;42.726;23.268;2022-11-21T11:52:31;94355.91;;;8.87;93.41
22647;BME280;11490;42.726;23.268;2022-11-21T11:55:03;94346.88;;;9.10;94.73
22647;BME280;11490;42.726;23.268;2022-11-21T11:57:31;94327.06;;;9.01;93.12
22647;BME280;11490;42.726;23.268;2022-11-21T12:02:53;94337.00;;;9.32;92.39
22647;BME280;11490;42.726;23.268;2022-11-21T12:05:25;94343.44;;;9.36;91.68
22647;BME280;11490;42.726;23.268;2022-11-21T12:08:20;94339.94;;;9.09;90.62
22647;BME280;11490;42.726;23.268;2022-11-21T12:10:59;94331.41;;;9.07;90.45
22647;BME280;11490;42.726;23.268;2022-11-21T12:13:48;94347.53;;;9.00;90.87
22647;BME280;11490;42.726;23.268;2022-11-21T12:16:14;94345.09;;;8.94;91.36
22647;BME280;11490;42.726;23.268;2022-11-21T12:18:57;94353.53;;;8.91;91.54
22647;BME280;11490;42.726;23.268;2022-11-21T12:21:24;94355.72;;;8.72;93.38
22647;BME280;11490;42.726;23.268;2022-11-21T12:23:51;94353.31;;;8.70;93.54
22647;BME280;11490;42.726;23.268;2022-11-21T12:31:51;94357.81;;;8.70;93.23
22647;BME280;11490;42.726;23.268;2022-11-21T12:35:04;94352.06;;;8.56;93.72
22647;BME280;11490;42.726;23.268;2022-11-21T12:37:47;94351.28;;;8.39;93.36
22647;BME280;11490;42.726;23.268;2022-11-21T12:45:56;94359.00;;;8.57;92.32
22647;BME280;11490;42.726;23.268;2022-11-21T12:52:31;94347.22;;;8.53;92.72
22647;BME280;11490;42.726;23.268;2022-11-21T12:57:57;94373.38;;;8.61;94.10
22647;BME280;11490;42.726;23.268;2022-11-21T13:06:23;94379.81;;;8.43;92.36
22647;BME280;11490;42.726;23.268;2022-11-21T13:08:52;94365.47;;;8.28;92.01
22647;BME280;11490;42.726;23.268;2022-11-21T13:11:40;94381.72;;;8.15;92.42
22647;BME280;11490;42.726;23.268;2022-11-21T13:14:46;94367.50;;;8.04;93.39
22647;BME280;11490;42.726;23.268;2022-11-21T13:20:05;94360.97;;;8.11;93.63
22647;BME280;11490;42.726;23.268;2022-11-21T13:30:54;94393.09;;;8.10;92.50
22647;BME280;11490;42.726;23.268;2022-11-21T13:44:40;94371.75;;;7.88;93.70
22647;BME280;11490;42.726;23.268;2022-11-21T13:50:27;94385.41;;;8.13;93.04
22647;BME280;11490;42.726;23.268;2022-11-21T13:53:14;94397.50;;;7.88;92.33
22647;BME280;11490;42.726;23.268;2022-11-21T13:55:58;94387.19;;;7.91;94.33
22647;BME280;11490;42.726;23.268;2022-11-21T14:01:51;94365.63;;;7.54;93.74
22647;BME280;11490;42.726;23.268;2022-11-21T14:07:26;94360.50;;;7.81;93.64
22647;BME280;11490;42.726;23.268;2022-11-21T14:09:54;94350.34;;;7.78;93.06
22647;BME280;11490;42.726;23.268;2022-11-21T14:12:23;94345.06;;;7.78;93.70
22647;BME280;11490;42.726;23.268;2022-11-21T14:17:35;94366.28;;;7.78;93.71
22647;BME280;11490;42.726;23.268;2022-11-21T14:20:23;94358.41;;;7.66;92.46
22647;BME280;11490;42.726;23.268;2022-11-21T14:23:14;94385.56;;;8.24;92.67
22647;BME280;11490;42.726;23.268;2022-11-21T14:25:58;94347.78;;;7.50;91.13
22647;BME280;11490;42.726;23.268;2022-11-21T14:31:24;94376.91;;;7.78;92.01
22647;BME280;11490;42.726;23.268;2022-11-21T14:34:00;94330.19;;;7.15;93.18
22647;BME280;11490;42.726;23.268;2022-11-21T14:36:48;94371.53;;;7.45;94.54
22647;BME280;11490;42.726;23.268;2022-11-21T14:39:40;94383.19;;;7.44;93.66
22647;BME280;11490;42.726;23.268;2022-11-21T14:42:12;94390.03;;;7.40;94.82
22647;BME280;11490;42.726;23.268;2022-11-21T14:44:39;94376.03;;;7.27;95.12
22647;BME280;11490;42.726;23.268;2022-11-21T14:47:12;94389.00;;;7.12;95.07